Nicolas A — TCNT4 — position and weather

sailwx.info

Track history (hours):
 
Tides and Currents Weather Stations Pressure Air Temp Water Temp Dewpoint Dewpoint Depression Visibility Wind Speed Wind Dir Waves Ship Positions

Nicolas A

Last reported at 2017-Oct-15 16:55 UTC. Time now 2017-Oct-19 14:56 UTC.
Position N 35°46' W 000°36'.

Length 133 m; draft 8 m.

Type: Ship (hazmat cat A). MMSI: 271043704.

Date/timePositionNaut miles runAvg speedWind from/ knotsBaromVisibWave heightAir tempDewpointWater temp
2017-Oct-15 16:55N 35°46' W 000°36'0 0.0
2017-Oct-15 16:28N 35°46' W 000°36'0 0.0
2017-Oct-15 15:49N 35°46' W 000°36'0 0.0
2017-Oct-15 06:01N 35°46' W 000°36'0 0.0
2017-Oct-15 05:51N 35°46' W 000°36'0 0.0
2017-Oct-14 17:49N 35°46' W 000°36'0 0.0
2017-Oct-14 17:30N 35°46' W 000°36'0 0.0
2017-Oct-14 16:54N 35°46' W 000°36'0 0.0
2017-Oct-14 16:27N 35°46' W 000°36'0 0.0
2017-Oct-14 08:25N 35°46' W 000°36'0 0.0
2017-Oct-14 07:36N 35°46' W 000°36'0 0.0
2017-Oct-14 07:27N 35°46' W 000°36'0 0.0
2017-Oct-13 23:11N 35°46' W 000°36'0 0.1
2017-Oct-13 22:55N 35°46' W 000°36'0 0.0
2017-Oct-13 21:13N 35°46' W 000°36'0 0.0
2017-Oct-13 17:55N 35°46' W 000°36'1 0.0
2017-Oct-12 19:05N 35°47' W 000°36'1 6.1
2017-Oct-12 18:56N 35°47' W 000°36'1812.0
2017-Oct-12 17:27N 36°04' W 000°28'2612.8
2017-Oct-12 15:24N 36°29' W 000°19'512.9
2017-Oct-12 15:00N 36°34' W 000°18'2113.0
2017-Oct-12 13:25N 36°54' W 000°12'512.7
2017-Oct-12 13:00N 36°60' W 000°11'612.5
2017-Oct-12 12:30N 37°05' W 000°08'612.6
2017-Oct-12 12:00N 37°11' W 000°06'612.6
2017-Oct-12 11:30N 37°17' W 000°04'612.5
2017-Oct-12 11:00N 37°23' W 000°02'612.4
2017-Oct-12 10:30N 37°30' W 000°00'612.3
2017-Oct-12 10:00N 37°36' E 000°01'612.3
2017-Oct-12 09:30N 37°42' E 000°03'812.4
2017-Oct-12 08:52N 37°49' E 000°04'512.6
2017-Oct-12 08:27N 37°55' E 000°06'612.6
2017-Oct-12 07:57N 38°01' E 000°08'612.4
2017-Oct-12 07:28N 38°06' E 000°10'612.3
2017-Oct-12 07:00N 38°12' E 000°11'1012.4
2017-Oct-12 06:10N 38°22' E 000°14'  
2017-Oct-06 07:35N 38°12' E 000°16'2611.7
2017-Oct-06 05:21N 37°47' E 000°08'511.4
2017-Oct-06 04:53N 37°42' E 000°07'411.4
2017-Oct-06 04:31N 37°37' E 000°05'611.3
2017-Oct-06 04:01N 37°32' E 000°03'611.2
2017-Oct-06 03:31N 37°27' E 000°02'611.1
2017-Oct-06 03:01N 37°21' E 000°00'611.1
2017-Oct-06 02:31N 37°16' W 000°01'611.2
2017-Oct-06 01:58N 37°10' W 000°03'611.2
2017-Oct-06 01:26N 37°04' W 000°05'511.1
2017-Oct-06 01:00N 36°60' W 000°07'511.0
2017-Oct-06 00:30N 36°54' W 000°09'611.0
2017-Oct-06 00:00N 36°49' W 000°10'811.0
2017-Oct-05 23:16N 36°41' W 000°14'4110.8
2017-Oct-05 19:26N 36°01' W 000°26'511.1
2017-Oct-05 18:58N 35°57' W 000°29'510.6
2017-Oct-05 18:31N 35°53' W 000°33'10 9.9
2017-Oct-05 17:32N 35°44' W 000°37'0 8.2
2017-Oct-05 17:30N 35°44' W 000°37'  
Track history (hours):
 
Tides and Currents Weather Stations Pressure Air Temp Water Temp Dewpoint Dewpoint Depression Visibility Wind Speed Wind Dir Waves Ship Positions

Nicolas A

Last reported at 2017-Oct-15 16:55 UTC. Time now 2017-Oct-19 14:56 UTC.
Position N 35°46' W 000°36'.

Length 133 m; draft 8 m.

Type: Ship (hazmat cat A). MMSI: 271043704.

Date/timePositionNaut miles runAvg speedWind from/ knotsBaromVisibWave heightAir tempDewpointWater temp
2017-Oct-15 16:55N 35°46' W 000°36'0 0.0
2017-Oct-15 16:28N 35°46' W 000°36'0 0.0
2017-Oct-15 15:49N 35°46' W 000°36'0 0.0
2017-Oct-15 06:01N 35°46' W 000°36'0 0.0
2017-Oct-15 05:51N 35°46' W 000°36'0 0.0
2017-Oct-14 17:49N 35°46' W 000°36'0 0.0
2017-Oct-14 17:30N 35°46' W 000°36'0 0.0
2017-Oct-14 16:54N 35°46' W 000°36'0 0.0
2017-Oct-14 16:27N 35°46' W 000°36'0 0.0
2017-Oct-14 08:25N 35°46' W 000°36'0 0.0
2017-Oct-14 07:36N 35°46' W 000°36'0 0.0
2017-Oct-14 07:27N 35°46' W 000°36'0 0.0
2017-Oct-13 23:11N 35°46' W 000°36'0 0.1
2017-Oct-13 22:55N 35°46' W 000°36'0 0.0
2017-Oct-13 21:13N 35°46' W 000°36'0 0.0
2017-Oct-13 17:55N 35°46' W 000°36'1 0.0
2017-Oct-12 19:05N 35°47' W 000°36'1 6.1
2017-Oct-12 18:56N 35°47' W 000°36'1812.0
2017-Oct-12 17:27N 36°04' W 000°28'2612.8
2017-Oct-12 15:24N 36°29' W 000°19'512.9
2017-Oct-12 15:00N 36°34' W 000°18'2113.0
2017-Oct-12 13:25N 36°54' W 000°12'512.7
2017-Oct-12 13:00N 36°60' W 000°11'612.5
2017-Oct-12 12:30N 37°05' W 000°08'612.6
2017-Oct-12 12:00N 37°11' W 000°06'612.6
2017-Oct-12 11:30N 37°17' W 000°04'612.5
2017-Oct-12 11:00N 37°23' W 000°02'612.4
2017-Oct-12 10:30N 37°30' W 000°00'612.3
2017-Oct-12 10:00N 37°36' E 000°01'612.3
2017-Oct-12 09:30N 37°42' E 000°03'812.4
2017-Oct-12 08:52N 37°49' E 000°04'512.6
2017-Oct-12 08:27N 37°55' E 000°06'612.6
2017-Oct-12 07:57N 38°01' E 000°08'612.4
2017-Oct-12 07:28N 38°06' E 000°10'612.3
2017-Oct-12 07:00N 38°12' E 000°11'1012.4
2017-Oct-12 06:10N 38°22' E 000°14'  
2017-Oct-06 07:35N 38°12' E 000°16'2611.7
2017-Oct-06 05:21N 37°47' E 000°08'511.4
2017-Oct-06 04:53N 37°42' E 000°07'411.4
2017-Oct-06 04:31N 37°37' E 000°05'611.3
2017-Oct-06 04:01N 37°32' E 000°03'611.2
2017-Oct-06 03:31N 37°27' E 000°02'611.1
2017-Oct-06 03:01N 37°21' E 000°00'611.1
2017-Oct-06 02:31N 37°16' W 000°01'611.2
2017-Oct-06 01:58N 37°10' W 000°03'611.2
2017-Oct-06 01:26N 37°04' W 000°05'511.1
2017-Oct-06 01:00N 36°60' W 000°07'511.0
2017-Oct-06 00:30N 36°54' W 000°09'611.0
2017-Oct-06 00:00N 36°49' W 000°10'811.0
2017-Oct-05 23:16N 36°41' W 000°14'4110.8
2017-Oct-05 19:26N 36°01' W 000°26'511.1
2017-Oct-05 18:58N 35°57' W 000°29'510.6
2017-Oct-05 18:31N 35°53' W 000°33'10 9.9
2017-Oct-05 17:32N 35°44' W 000°37'0 8.2
2017-Oct-05 17:30N 35°44' W 000°37'  

Dump ship's entire track history